Data for 04/14/2013

Time Sea-Level Adjusted Pressure Absolute Pressure Temperature Relative Humidity Dew Point   
(mb) (inHg) (mb) (inHg) (C) (F) (%) (C) (F)
00:05 1008 29.77 837 24.72 -1.9 28.6 58 -9.2 15.4
00:10 1008 29.77 837 24.72 -1.8 28.7 57 -9.2 15.4
00:15 1008 29.77 837 24.72 -1.9 28.7 58 -9 15.7
00:20 1008 29.77 837 24.72 -1.9 28.6 59 -8.9 15.9
00:25 1008 29.77 837 24.72 -1.8 28.7 57 -9.2 15.5
00:30 1008 29.77 837 24.72 -1.8 28.8 59 -8.7 16.4
00:35 1008 29.77 837 24.72 -1.8 28.7 61 -8.5 16.8
00:40 1008 29.77 837 24.72 -1.8 28.7 61 -8.4 17
00:45 1008 29.77 837 24.72 -1.8 28.7 61 -8.4 16.9
00:50 1008 29.77 837 24.72 -2.1 28.2 75 -6 21.3
00:55 1008 29.77 837 24.72 -2.7 27.1 74 -6.7 20
01:00 1008 29.77 837 24.72 -2.7 27.1 75 -6.6 20.1
01:05 1008 29.77 837 24.72 -2.6 27.3 75 -6.5 20.3
01:10 1008 29.77 837 24.72 -2.6 27.4 73 -6.8 19.7
01:15 1008 29.77 837 24.72 -2.5 27.4 74 -6.6 20
01:20 1008 29.77 837 24.72 -2.5 27.6 73 -6.8 19.8
01:25 1008 29.77 837 24.72 -2.4 27.7 72 -6.7 19.9
01:30 1008 29.77 837 24.72 -2.4 27.8 71 -6.9 19.6
01:35 1008 29.77 837 24.72 -2.4 27.8 70 -7 19.3
01:40 1008 29.77 837 24.72 -2.5 27.5 76 -6.2 20.8
01:45 1008 29.77 837 24.72 -2.8 26.9 79 -5.9 21.3
01:50 1008 29.77 837 24.72 -3.1 26.4 82 -5.8 21.5
01:55 1008 29.77 837 24.72 -3.3 26.1 83 -5.8 21.6
02:00 1008 29.77 837 24.72 -3.3 26 86 -5.4 22.3
02:05 1008 29.77 837 24.72 -3.7 25.3 89 -5.2 22.6
02:10 1008 29.77 837 24.72 -3.8 25.1 89 -5.4 22.3
02:15 1008 29.77 837 24.72 -3.8 25.1 88 -5.5 22.1
02:20 1008 29.77 837 24.72 -3.8 25.2 87 -5.6 22
02:25 1008 29.77 838 24.75 -3.7 25.3 87 -5.6 21.9
02:30 1008 29.77 838 24.75 -3.7 25.4 87 -5.6 21.9
02:35 1008 29.77 838 24.75 -3.6 25.5 86 -5.7 21.8
02:40 1008 29.77 838 24.75 -3.6 25.5 86 -5.6 21.9
02:45 1008 29.77 838 24.75 -3.6 25.6 84 -5.8 21.5
02:50 1008 29.77 838 24.75 -3.7 25.4 85 -5.9 21.4
02:55 1008 29.77 838 24.75 -3.7 25.3 84 -6 21.2
03:00 1008 29.77 838 24.75 -3.8 25.2 85 -6 21.2
03:05 1008 29.77 838 24.75 -3.9 25 85 -6.1 21.1
03:10 1008 29.77 838 24.75 -3.9 24.9 85 -6.2 20.9
03:15 1008 29.77 838 24.75 -4 24.7 85 -6.2 20.9
03:20 1008 29.77 838 24.75 -4.1 24.6 86 -6.2 20.9
03:25 1008 29.77 838 24.75 -4 24.8 84 -6.3 20.7
03:30 1009 29.8 838 24.75 -3.8 25.1 81 -6.6 20.2
03:35 1009 29.8 838 24.75 -3.7 25.4 81 -6.4 20.5
03:40 1008 29.77 838 24.75 -3.5 25.7 80 -6.4 20.4
03:45 1008 29.77 838 24.75 -3.4 25.9 80 -6.4 20.5
03:50 1009 29.8 838 24.75 -3.3 26.1 80 -6.2 20.8
03:55 1009 29.8 838 24.75 -3.2 26.3 80 -6.1 21
04:00 1009 29.8 838 24.75 -3.1 26.5 81 -5.9 21.3
04:05 1009 29.8 838 24.75 -3.1 26.4 82 -5.7 21.7
04:10 1009 29.8 838 24.75 -3.3 26 86 -5.3 22.5
04:15 1009 29.8 838 24.75 -3.5 25.6 89 -5.2 22.7
04:20 1009 29.8 838 24.75 -3.6 25.5 90 -5 23
04:25 1009 29.8 838 24.75 -3.7 25.4 91 -4.9 23.1
04:30 1009 29.8 838 24.75 -3.7 25.3 91 -4.9 23.1
04:35 1009 29.8 838 24.75 -3.7 25.3 92 -4.8 23.3
04:40 1009 29.8 838 24.75 -3.7 25.3 93 -4.8 23.4
04:45 1009 29.8 838 24.75 -3.7 25.3 92 -4.8 23.4
04:50 1009 29.8 838 24.75 -3.7 25.3 92 -4.8 23.4
04:55 1009 29.8 838 24.75 -3.7 25.4 93 -4.7 23.5
05:00 1009 29.8 838 24.75 -3.7 25.3 93 -4.7 23.6
05:05 1009 29.8 838 24.75 -3.8 25.2 93 -4.7 23.5
05:10 1009 29.8 838 24.75 -3.8 25.1 93 -4.8 23.4
05:15 1009 29.8 838 24.75 -3.9 25 93 -4.9 23.2
05:20 1009 29.8 838 24.75 -4 24.9 93 -4.9 23.1
05:25 1009 29.8 838 24.75 -4 24.8 93 -5 23
05:30 1009 29.8 838 24.75 -4 24.8 93 -4.9 23.1
05:35 1009 29.8 838 24.75 -3.9 24.9 94 -4.8 23.3
05:40 1009 29.8 838 24.75 -3.9 25 93 -4.9 23.3
05:45 1009 29.8 838 24.75 -3.9 25 93 -4.8 23.4
05:50 1009 29.8 838 24.75 -3.9 25 93 -4.8 23.4
05:55 1009 29.8 838 24.75 -3.9 25.1 94 -4.7 23.5
06:00 1009 29.8 838 24.75 -3.8 25.2 94 -4.7 23.5
06:05 1009 29.8 838 24.75 -3.8 25.1 93 -4.8 23.4
06:10 1009 29.8 838 24.75 -3.8 25.2 94 -4.7 23.6
06:15 1009 29.8 838 24.75 -3.7 25.4 94 -4.6 23.7
06:20 1009 29.8 838 24.75 -3.6 25.5 93 -4.6 23.6
06:25 1009 29.8 838 24.75 -3.7 25.3 92 -4.9 23.3
06:30 1009 29.8 838 24.75 -3.7 25.3 93 -4.7 23.5
06:35 1009 29.8 838 24.75 -3.5 25.7 91 -4.7 23.5
06:40 1009 29.8 838 24.75 -3.4 25.8 91 -4.7 23.5
06:45 1009 29.8 838 24.75 -3.3 26.1 89 -4.8 23.4
06:50 1009 29.8 838 24.75 -3.1 26.3 86 -5.2 22.7
06:55 1009 29.8 838 24.75 -3 26.6 85 -5.2 22.7
07:00 1009 29.8 838 24.75 -2.8 27 83 -5.3 22.4
07:05 1009 29.8 838 24.75 -2.5 27.5 80 -5.6 22
07:10 1009 29.8 838 24.75 -2.4 27.6 79 -5.7 21.8
07:15 1009 29.8 838 24.75 -2.5 27.4 79 -5.6 21.9
07:20 1009 29.8 838 24.75 -2.5 27.4 79 -5.8 21.6
07:25 1009 29.8 838 24.75 -2.4 27.7 77 -5.9 21.4
07:30 1009 29.8 838 24.75 -2.3 27.8 75 -6.2 20.8
07:35 1009 29.8 838 24.75 -2.1 28.2 72 -6.4 20.5
07:40 1009 29.8 838 24.75 -2 28.5 72 -6.3 20.7
07:45 1009 29.8 838 24.75 -1.9 28.5 72 -6.4 20.4
07:50 1009 29.8 838 24.75 -2 28.4 73 -6.2 20.8
07:55 1009 29.8 838 24.75 -2.1 28.2 76 -5.8 21.6
08:00 1009 29.8 838 24.75 -2.3 27.9 80 -5.3 22.5
08:05 1009 29.8 838 24.75 -2.7 27.1 81 -5.5 22.1
08:10 1009 29.8 838 24.75 -2.8 27 81 -5.6 22
08:15 1009 29.8 839 24.78 -2.7 27.2 80 -5.7 21.7
08:20 1009 29.8 839 24.78 -2.6 27.4 79 -5.7 21.8
08:25 1009 29.8 839 24.78 -2.6 27.4 79 -5.7 21.8
08:30 1009 29.8 839 24.78 -2.3 27.8 79 -5.5 22.1
08:35 1009 29.8 839 24.78 -2.2 28.1 78 -5.6 22
08:40 1010 29.83 839 24.78 -2 28.3 76 -5.8 21.5
08:45 1010 29.83 839 24.78 -1.7 28.9 75 -5.5 22
08:50 1010 29.83 839 24.78 -1.2 29.8 74 -5.4 22.4
08:55 1010 29.83 839 24.78 -1 30.3 71 -5.5 22.1
09:00 1010 29.83 839 24.78 -0.8 30.6 69 -5.7 21.8
09:05 1010 29.83 839 24.78 -0.6 30.9 68 -5.7 21.7
09:10 1010 29.83 839 24.78 -0.4 31.3 67 -5.8 21.5
09:15 1010 29.83 839 24.78 -0.3 31.4 67 -5.7 21.8
09:20 1010 29.83 839 24.78 -0.7 30.8 69 -5.7 21.8
09:25 1010 29.83 839 24.78 -0.3 31.4 70 -5.2 22.7
09:30 1010 29.83 839 24.78 -0.2 31.6 73 -4.6 23.8
09:35 1010 29.83 839 24.78 -0.4 31.3 75 -4.3 24.2
09:40 1010 29.83 839 24.78 -0.8 30.5 78 -4.1 24.6
09:45 1010 29.83 839 24.78 -1 30.3 79 -4.1 24.6
09:50 1010 29.83 839 24.78 -0.9 30.3 77 -4.5 24
09:55 1010 29.83 840 24.81 -0.7 30.8 72 -5.1 22.8
10:00 1010 29.83 840 24.81 -0.6 30.9 76 -4.4 24.1
10:05 1010 29.83 840 24.81 -0.8 30.6 78 -4.2 24.5
10:10 1010 29.83 840 24.81 -1.3 29.6 77 -4.8 23.4
10:15 1011 29.85 840 24.81 -1.1 30 74 -5.3 22.5
10:20 1011 29.85 840 24.81 -1 30.2 69 -5.9 21.4
10:25 1011 29.85 840 24.81 -0.6 31 69 -5.6 21.8
10:30 1011 29.85 840 24.81 -0.8 30.6 68 -6 21.1
10:35 1011 29.85 840 24.81 -0.2 31.7 63 -6.4 20.5
10:40 1011 29.85 840 24.81 -0.2 31.6 64 -6.2 20.9
10:45 1011 29.85 840 24.81 -0.2 31.6 66 -5.9 21.3
10:50 1011 29.85 840 24.81 -0.1 31.7 61 -6.8 19.7
10:55 1011 29.85 840 24.81 -0.1 31.9 64 -6 21.2
11:00 1011 29.85 840 24.81 0.3 32.5 62 -6.1 21
11:05 1011 29.85 840 24.81 1 33.8 59 -6.1 21.1
11:10 1011 29.85 840 24.81 1.1 34.1 61 -5.6 21.8
11:15 1011 29.85 840 24.81 0.9 33.6 62 -5.5 22.2
11:20 1011 29.85 840 24.81 0.9 33.6 63 -5.3 22.4
11:25 1011 29.85 840 24.81 1.2 34.1 59 -6 21.2
11:30 1011 29.85 840 24.81 1.7 35.1 61 -5.1 22.8
11:35 1011 29.85 840 24.81 1.5 34.7 57 -6.2 20.8
11:40 1011 29.85 840 24.81 1.2 34.1 60 -5.7 21.7
11:45 1011 29.85 840 24.81 0.7 33.2 61 -5.9 21.4
11:50 1011 29.85 840 24.81 0.4 32.8 61 -6.2 20.8
11:55 1011 29.85 840 24.81 0.5 33 61 -6.2 20.8
12:00 1011 29.85 840 24.81 1 33.8 60 -6 21.2
12:05 1011 29.85 840 24.81 1.3 34.4 56 -6.5 20.2
12:10 1011 29.85 840 24.81 1.8 35.2 55 -6.3 20.6
12:15 1011 29.85 840 24.81 1.9 35.3 55 -6.2 20.8
12:20 1011 29.85 840 24.81 1.9 35.5 56 -6 21.3
12:25 1011 29.85 840 24.81 1.9 35.4 56 -5.9 21.3
12:30 1011 29.85 840 24.81 2.3 36.2 53 -6.4 20.6
12:35 1011 29.85 840 24.81 2 35.7 57 -5.5 22
12:40 1011 29.85 840 24.81 1.2 34.1 59 -6 21.2
12:45 1011 29.85 840 24.81 1.3 34.3 58 -6 21.2
12:50 1011 29.85 840 24.81 1.5 34.7 55 -6.6 20.1
12:55 1011 29.85 840 24.81 1.7 35 52 -7.1 19.3
13:00 1011 29.85 840 24.81 1.5 34.7 52 -7.3 18.8
13:05 1011 29.85 840 24.81 1.6 34.9 52 -7.2 19
13:10 1010 29.83 840 24.81 2.3 36.2 51 -6.8 19.7
13:15 1010 29.83 840 24.81 2.1 35.8 54 -6.1 20.9
13:20 1010 29.83 840 24.81 1.5 34.8 53 -7.1 19.3
13:25 1010 29.83 840 24.81 1.5 34.7 55 -6.6 20.1
13:30 1010 29.83 840 24.81 1.6 34.9 54 -6.8 19.7
13:35 1010 29.83 840 24.81 2.1 35.8 51 -7.1 19.2
13:40 1010 29.83 840 24.81 2.5 36.5 48 -7.5 18.5
13:45 1010 29.83 840 24.81 2.6 36.6 48 -7.4 18.6
13:50 1010 29.83 840 24.81 2.4 36.4 47 -7.7 18.2
13:55 1010 29.83 840 24.81 2.2 35.9 49 -7.4 18.8
14:00 1010 29.83 839 24.78 2.8 37 47 -7.6 18.4
14:05 1010 29.83 839 24.78 2.5 36.4 48 -7.4 18.6
14:10 1010 29.83 839 24.78 3 37.5 45 -7.9 17.8
14:15 1010 29.83 839 24.78 2.8 37 48 -7.3 18.9
14:20 1010 29.83 839 24.78 2.6 36.7 45 -8.2 17.3
14:25 1010 29.83 839 24.78 2.3 36.1 46 -8.3 17.1
14:30 1010 29.83 839 24.78 3 37.4 44 -8.2 17.3
14:35 1010 29.83 839 24.78 3.2 37.8 41 -8.8 16.2
14:40 1010 29.83 839 24.78 3 37.4 46 -7.6 18.3
14:45 1010 29.83 839 24.78 2.4 36.4 44 -8.5 16.6
14:50 1010 29.83 839 24.78 1.8 35.3 46 -8.5 16.7
14:55 1010 29.83 839 24.78 1.6 34.9 51 -7.5 18.5
15:00 1010 29.83 839 24.78 1.9 35.4 49 -7.9 17.8
15:05 1010 29.83 839 24.78 2.6 36.7 45 -8.3 17.1
15:10 1010 29.83 839 24.78 2.9 37.1 43 -8.6 16.5
15:15 1010 29.83 839 24.78 2.7 36.8 43 -8.7 16.3
15:20 1010 29.83 839 24.78 2.5 36.6 44 -8.4 16.9
15:25 1010 29.83 839 24.78 2.2 35.9 43 -9.1 15.6
15:30 1010 29.83 839 24.78 2.3 36.1 44 -8.9 16
15:35 1010 29.83 839 24.78 2.4 36.3 44 -8.8 16.1
15:40 1010 29.83 839 24.78 2.1 35.8 47 -8 17.6
15:45 1010 29.83 839 24.78 1.4 34.6 49 -8.1 17.4
15:50 1010 29.83 839 24.78 1.6 34.9 46 -8.7 16.4
15:55 1010 29.83 839 24.78 2.6 36.7 43 -8.6 16.5
16:00 1010 29.83 839 24.78 1.9 35.5 47 -8.3 17
16:05 1010 29.83 839 24.78 1.5 34.7 49 -8.2 17.2
16:10 1010 29.83 839 24.78 1.7 35.1 48 -8 17.5
16:15 1010 29.83 839 24.78 1.7 35.1 48 -8.1 17.4
16:20 1010 29.83 839 24.78 1.9 35.3 48 -8 17.7
16:25 1010 29.83 839 24.78 1.7 35.1 48 -8.2 17.2
16:30 1010 29.83 839 24.78 1.9 35.4 47 -8.3 17.1
16:35 1010 29.83 839 24.78 2.1 35.8 43 -9.3 15.3
16:40 1010 29.83 839 24.78 2.2 35.9 44 -8.7 16.3
16:45 1010 29.83 839 24.78 1.6 34.8 48 -8.2 17.2
16:50 1010 29.83 839 24.78 1.6 34.9 49 -8.1 17.4
16:55 1010 29.83 839 24.78 1.3 34.4 49 -8.3 17
17:00 1010 29.83 840 24.81 1.4 34.5 51 -7.8 18
17:05 1010 29.83 840 24.81 1.5 34.7 49 -8.1 17.5
17:10 1010 29.83 840 24.81 1 33.8 50 -8.3 17.1
17:15 1010 29.83 840 24.81 0.7 33.3 51 -8.3 17.1
17:20 1010 29.83 840 24.81 1.1 33.9 47 -9 15.8
17:25 1010 29.83 840 24.81 1 33.8 48 -8.9 16
17:30 1010 29.83 840 24.81 1.4 34.5 47 -8.8 16.1
17:35 1010 29.83 840 24.81 1.5 34.7 48 -8.4 16.9
17:40 1011 29.85 840 24.81 1.3 34.3 49 -8.4 16.9
17:45 1011 29.85 840 24.81 1.3 34.3 49 -8.4 16.8
17:50 1011 29.85 840 24.81 1.3 34.3 47 -8.7 16.3
17:55 1011 29.85 840 24.81 1.2 34.2 48 -8.7 16.4
18:00 1011 29.85 840 24.81 1.1 34 48 -8.7 16.3
18:05 1011 29.85 840 24.81 1 33.8 48 -8.9 16.1
18:10 1011 29.85 840 24.81 1 33.9 47 -9 15.8
18:15 1011 29.85 840 24.81 1 33.8 47 -9.1 15.6
18:20 1011 29.85 840 24.81 0.9 33.6 48 -8.8 16.2
18:25 1011 29.85 840 24.81 0.9 33.6 49 -8.7 16.3
18:30 1011 29.85 840 24.81 0.8 33.5 47 -9.1 15.6
18:35 1011 29.85 840 24.81 0.7 33.2 48 -9.1 15.6
18:40 1011 29.85 840 24.81 0.5 33 49 -8.9 16
18:45 1011 29.85 840 24.81 0.5 32.9 49 -8.9 16
18:50 1011 29.85 840 24.81 0.4 32.7 50 -8.8 16.1
18:55 1011 29.85 840 24.81 0.2 32.4 52 -8.5 16.6
19:00 1011 29.85 840 24.81 -0.1 31.8 54 -8.3 17.1
19:05 1011 29.85 841 24.83 -0.2 31.7 53 -8.5 16.6
19:10 1011 29.85 841 24.83 -0.4 31.3 54 -8.7 16.4
19:15 1012 29.88 841 24.83 -0.7 30.8 54 -8.9 16
19:20 1012 29.88 841 24.83 -0.9 30.4 57 -8.3 17
19:25 1012 29.88 841 24.83 -1.1 30 58 -8.3 17.1
19:30 1012 29.88 841 24.83 -1.3 29.7 59 -8.3 17.1
19:35 1012 29.88 841 24.83 -1.4 29.6 58 -8.7 16.4
19:40 1012 29.88 841 24.83 -1.6 29 59 -8.7 16.3
19:45 1012 29.88 841 24.83 -1.9 28.6 59 -8.9 15.9
19:50 1012 29.88 841 24.83 -2.2 28.1 59 -9.1 15.7
19:55 1012 29.88 841 24.83 -2.3 27.9 59 -9.2 15.4
20:00 1012 29.88 841 24.83 -2.3 27.8 59 -9.2 15.5
20:05 1012 29.88 841 24.83 -2.3 27.9 58 -9.4 15.1
20:10 1012 29.88 841 24.83 -2.4 27.7 59 -9.4 15.1
20:15 1012 29.88 841 24.83 -2.5 27.5 58 -9.5 14.8
20:20 1012 29.88 841 24.83 -2.6 27.4 58 -9.6 14.7
20:25 1012 29.88 841 24.83 -2.5 27.4 58 -9.7 14.6
20:30 1012 29.88 842 24.86 -2.6 27.3 59 -9.6 14.7
20:35 1012 29.88 842 24.86 -2.6 27.3 59 -9.5 14.9
20:40 1012 29.88 842 24.86 -2.8 27 61 -9.3 15.2
20:45 1012 29.88 842 24.86 -2.9 26.9 61 -9.3 15.3
20:50 1013 29.91 842 24.86 -3.1 26.5 62 -9.4 15.1
20:55 1013 29.91 842 24.86 -3.2 26.3 63 -9.2 15.4
21:00 1013 29.91 842 24.86 -3.2 26.2 64 -9.1 15.6
21:05 1013 29.91 842 24.86 -3.3 26.1 64 -9.3 15.3
21:10 1013 29.91 842 24.86 -3.3 26 63 -9.4 15.1
21:15 1013 29.91 842 24.86 -3.4 25.9 63 -9.4 15
21:20 1013 29.91 842 24.86 -3.4 25.9 62 -9.7 14.5
21:25 1013 29.91 842 24.86 -3.5 25.8 62 -9.8 14.4
21:30 1013 29.91 842 24.86 -3.4 26 61 -9.8 14.3
21:35 1013 29.91 842 24.86 -3.4 25.9 61 -9.9 14.2
21:40 1013 29.91 842 24.86 -3.3 26 60 -10 14
21:45 1013 29.91 842 24.86 -3.4 26 59 -10.3 13.5
21:50 1013 29.91 842 24.86 -3.4 25.8 59 -10.2 13.6
21:55 1013 29.91 842 24.86 -3.5 25.6 60 -10.2 13.6
22:00 1013 29.91 842 24.86 -3.5 25.7 61 -10 14.1
22:05 1013 29.91 842 24.86 -3.6 25.5 63 -9.6 14.7
22:10 1013 29.91 842 24.86 -3.6 25.4 66 -9 15.7
22:15 1013 29.91 842 24.86 -3.7 25.3 72 -8 17.6
22:20 1013 29.91 842 24.86 -3.9 25.1 76 -7.5 18.6
22:25 1013 29.91 842 24.86 -4 24.7 77 -7.4 18.6
22:30 1013 29.91 842 24.86 -4.2 24.4 78 -7.5 18.4
22:35 1013 29.91 842 24.86 -4.3 24.3 73 -8.4 16.9
22:40 1013 29.91 842 24.86 -4.3 24.3 72 -8.7 16.4
22:45 1013 29.91 842 24.86 -4.2 24.4 72 -8.5 16.7
22:50 1013 29.91 842 24.86 -4.2 24.4 66 -9.6 14.7
22:55 1013 29.91 842 24.86 -4.3 24.3 66 -9.6 14.7
23:00 1013 29.91 842 24.86 -4.3 24.3 66 -9.6 14.7
23:05 1013 29.91 842 24.86 -4.3 24.2 68 -9.3 15.2
23:10 1013 29.91 842 24.86 -4.5 23.8 68 -9.6 14.7
23:15 1013 29.91 842 24.86 -4.6 23.7 68 -9.7 14.5
23:20 1013 29.91 842 24.86 -4.8 23.4 72 -9.1 15.6
23:25 1013 29.91 842 24.86 -5 23 71 -9.5 15
23:30 1013 29.91 842 24.86 -5 23 70 -9.7 14.5
23:35 1013 29.91 842 24.86 -5.1 22.8 72 -9.4 15.1
23:40 1013 29.91 842 24.86 -5.1 22.9 72 -9.3 15.2
23:45 1013 29.91 842 24.86 -5.2 22.7 73 -9.2 15.4
23:50 1013 29.91 842 24.86 -5.4 22.4 71 -9.8 14.3
23:55 1013 29.91 842 24.86 -5.4 22.3 73 -9.4 15.1
24:00 1013 29.91 842 24.86 -5.3 22.5 73 -9.3 15.2